Time;durP1;ratioP1;P1;durP2;ratioP2;P2;SDS_P1;SDS_P2;PMS_P1;PMS_P2;Temp;Humidity;BMP_temperature;BMP_pressure;BME280_temperature;BME280_humidity;BME280_pressure;Samples;Min_cycle;Max_cycle;Signal;HPM_P1;HPM_P2
2023/01/24 00:00:47;;;;;;;1.88;1.77;;;3.90;99.90;;;;;;6097750;23;20383;-77
2023/01/24 00:03:13;;;;;;;1.83;1.73;;;3.90;99.90;;;;;;6097557;23;20399;-77
2023/01/24 00:05:42;;;;;;;1.88;1.77;;;3.90;99.90;;;;;;6097168;23;20378;-78
2023/01/24 00:08:12;;;;;;;2.05;1.95;;;3.80;99.90;;;;;;6120313;23;20376;-77
2023/01/24 00:10:39;;;;;;;1.92;1.83;;;3.90;99.90;;;;;;6097099;23;20685;-77
2023/01/24 00:13:06;;;;;;;2.28;2.17;;;3.90;99.90;;;;;;6096759;23;20372;-78
2023/01/24 00:15:33;;;;;;;2.60;2.50;;;4.00;99.90;;;;;;6097046;23;20376;-77
2023/01/24 00:18:00;;;;;;;2.33;2.22;;;4.00;99.90;;;;;;6096107;23;20383;-79
2023/01/24 00:20:27;;;;;;;2.70;2.60;;;4.00;99.90;;;;;;6097310;23;20678;-76
2023/01/24 00:22:54;;;;;;;2.72;2.63;;;4.00;99.90;;;;;;6121527;23;20444;-76
2023/01/24 00:25:21;;;;;;;2.58;2.47;;;4.00;99.90;;;;;;6096733;23;20399;-77
2023/01/24 00:27:49;;;;;;;2.53;2.42;;;4.10;99.90;;;;;;6121541;23;20379;-77
2023/01/24 00:30:15;;;;;;;2.30;2.20;;;4.10;99.90;;;;;;6123174;23;20391;-76
2023/01/24 00:32:42;;;;;;;1.90;1.80;;;4.20;99.90;;;;;;6122214;23;20463;-77
2023/01/24 00:35:09;;;;;;;1.73;1.63;;;4.20;99.90;;;;;;6096172;23;20886;-76
2023/01/24 00:37:36;;;;;;;1.52;1.48;;;4.20;99.90;;;;;;6097016;23;20391;-79
2023/01/24 00:40:03;;;;;;;1.53;1.50;;;4.20;99.90;;;;;;6097015;23;20372;-77
2023/01/24 00:42:30;;;;;;;1.27;1.20;;;4.20;99.90;;;;;;6097282;23;20414;-77
2023/01/24 00:44:57;;;;;;;1.27;1.17;;;4.30;99.90;;;;;;6097594;23;20756;-77
2023/01/24 00:47:25;;;;;;;1.08;1.08;;;4.30;99.90;;;;;;6097619;23;20464;-78
2023/01/24 00:49:52;;;;;;;1.13;1.13;;;4.30;99.90;;;;;;6097295;23;20383;-77
2023/01/24 00:52:19;;;;;;;1.60;1.50;;;4.30;99.90;;;;;;6097957;23;20407;-77
2023/01/24 00:54:46;;;;;;;1.60;1.50;;;4.30;99.90;;;;;;6097887;23;20372;-77
2023/01/24 00:57:13;;;;;;;1.58;1.48;;;4.30;99.90;;;;;;6125629;23;20368;-76
2023/01/24 00:59:41;;;;;;;1.75;1.65;;;4.20;99.90;;;;;;6102651;23;20447;-77
2023/01/24 01:02:08;;;;;;;1.40;1.40;;;4.10;99.90;;;;;;6103032;23;20379;-78
2023/01/24 01:04:35;;;;;;;1.83;1.73;;;4.10;99.90;;;;;;6100762;23;20715;-78
2023/01/24 01:07:02;;;;;;;1.50;1.40;;;4.00;99.90;;;;;;6099190;23;20387;-78
2023/01/24 01:09:28;;;;;;;1.97;1.87;;;4.00;99.90;;;;;;6128037;23;20383;-77
2023/01/24 01:11:55;;;;;;;1.70;1.60;;;4.00;99.90;;;;;;6100126;23;20391;-77
2023/01/24 01:14:22;;;;;;;1.88;1.77;;;4.00;99.90;;;;;;6097626;23;20376;-77
2023/01/24 01:16:49;;;;;;;1.40;1.40;;;4.10;99.90;;;;;;6096733;23;20375;-77
2023/01/24 01:19:16;;;;;;;1.67;1.58;;;4.10;99.90;;;;;;6095701;23;20451;-77
2023/01/24 01:21:44;;;;;;;1.30;1.30;;;4.10;99.90;;;;;;6096745;23;20399;-77
2023/01/24 01:24:11;;;;;;;1.20;1.20;;;4.20;99.90;;;;;;6095132;23;20844;-77
2023/01/24 01:26:38;;;;;;;1.50;1.40;;;4.20;99.90;;;;;;6096650;23;20384;-78
2023/01/24 01:29:05;;;;;;;1.20;1.20;;;4.20;99.90;;;;;;6095785;23;20379;-77
2023/01/24 01:31:32;;;;;;;1.23;1.23;;;4.30;99.90;;;;;;6096596;23;20774;-78
2023/01/24 01:33:59;;;;;;;1.50;1.50;;;4.40;99.90;;;;;;6096186;23;20704;-77
2023/01/24 01:36:25;;;;;;;1.27;1.27;;;4.40;99.90;;;;;;6097330;23;20368;-77
2023/01/24 01:38:53;;;;;;;1.60;1.50;;;4.40;99.90;;;;;;6123198;23;20439;-77
2023/01/24 01:41:20;;;;;;;1.23;1.23;;;4.40;99.90;;;;;;6101854;23;20367;-77
2023/01/24 01:46:46;;;;;;;1.52;1.52;;;4.30;99.90;;;;;;6125345;23;20708;-78
2023/01/24 01:49:22;;;;;;;1.90;1.80;;;4.30;99.90;;;;;;6103512;23;20379;-78
2023/01/24 01:51:52;;;;;;;1.30;1.30;;;4.20;99.90;;;;;;6099389;23;20387;-78
2023/01/24 01:54:41;;;;;;;1.20;1.20;;;4.20;99.90;;;;;;6094616;23;20541;-77
2023/01/24 01:57:15;;;;;;;1.30;1.30;;;4.30;99.90;;;;;;6067871;23;20375;-78
2023/01/24 01:59:49;;;;;;;1.50;1.40;;;4.30;99.90;;;;;;6076942;23;20389;-78
